Time;durP1;ratioP1;P1;durP2;ratioP2;P2;SDS_P1;SDS_P2;PMS_P1;PMS_P2;Temp;Humidity;BMP_temperature;BMP_pressure;BME280_temperature;BME280_humidity;BME280_pressure;Samples;Min_cycle;Max_cycle;Signal;HPM_P1;HPM_P2
2022/05/31 00:00:00;;;;;;;0.7;0.7;;;;;;;12.4;100.0;101110;;;;
2022/05/31 00:01:00;;;;;;;0.9;0.9;;;;;;;12.4;100.0;101110;;;;
2022/05/31 00:02:01;;;;;;;0.9;0.9;;;;;;;12.4;100.0;101110;;;;
2022/05/31 00:03:01;;;;;;;0.9;0.9;;;;;;;12.4;100.0;101110;;;;
2022/05/31 00:04:00;;;;;;;0.9;0.9;;;;;;;12.4;100.0;101110;;;;
2022/05/31 00:05:00;;;;;;;0.9;0.9;;;;;;;12.4;100.0;101110;;;;
2022/05/31 00:06:00;;;;;;;0.9;0.9;;;;;;;12.4;100.0;101120;;;;
2022/05/31 00:07:00;;;;;;;0.9;0.9;;;;;;;12.4;100.0;101120;;;;
2022/05/31 00:08:00;;;;;;;0.9;0.9;;;;;;;12.3;100.0;101110;;;;
2022/05/31 00:09:00;;;;;;;0.9;0.9;;;;;;;12.3;100.0;101110;;;;
2022/05/31 00:10:00;;;;;;;0.9;0.9;;;;;;;12.4;100.0;101110;;;;
2022/05/31 00:11:00;;;;;;;0.9;0.9;;;;;;;12.4;100.0;101110;;;;
2022/05/31 00:12:00;;;;;;;0.9;0.9;;;;;;;12.3;100.0;101110;;;;
2022/05/31 00:13:00;;;;;;;0.9;0.9;;;;;;;12.3;100.0;101110;;;;
2022/05/31 00:14:00;;;;;;;0.9;0.9;;;;;;;12.3;100.0;101110;;;;
2022/05/31 00:15:00;;;;;;;0.9;0.9;;;;;;;12.3;100.0;101110;;;;
2022/05/31 00:16:00;;;;;;;0.9;0.9;;;;;;;12.3;100.0;101100;;;;
2022/05/31 00:17:00;;;;;;;0.9;0.9;;;;;;;12.3;100.0;101100;;;;
2022/05/31 00:18:00;;;;;;;0.9;0.9;;;;;;;12.3;100.0;101100;;;;
2022/05/31 00:19:00;;;;;;;0.9;0.9;;;;;;;12.3;100.0;101100;;;;
2022/05/31 00:20:00;;;;;;;0.9;0.9;;;;;;;12.2;100.0;101100;;;;
2022/05/31 00:21:00;;;;;;;0.7;0.7;;;;;;;12.2;100.0;101100;;;;
2022/05/31 00:22:04;;;;;;;0.7;0.7;;;;;;;12.3;100.0;101100;;;;
2022/05/31 00:23:00;;;;;;;0.7;0.7;;;;;;;12.3;100.0;101100;;;;
2022/05/31 00:24:00;;;;;;;0.7;0.7;;;;;;;12.3;100.0;101100;;;;
2022/05/31 00:25:00;;;;;;;0.7;0.7;;;;;;;12.3;100.0;101100;;;;
2022/05/31 00:26:00;;;;;;;0.7;0.7;;;;;;;12.3;100.0;101100;;;;
2022/05/31 00:27:02;;;;;;;0.7;0.7;;;;;;;12.3;100.0;101100;;;;
2022/05/31 00:28:00;;;;;;;0.7;0.7;;;;;;;12.2;100.0;101100;;;;
2022/05/31 00:29:00;;;;;;;0.7;0.7;;;;;;;12.2;100.0;101100;;;;
2022/05/31 00:30:00;;;;;;;0.7;0.7;;;;;;;12.2;100.0;101100;;;;
2022/05/31 00:31:00;;;;;;;0.7;0.7;;;;;;;12.2;100.0;101100;;;;
2022/05/31 00:32:01;;;;;;;0.7;0.7;;;;;;;12.2;100.0;101100;;;;
2022/05/31 00:33:01;;;;;;;0.7;0.7;;;;;;;12.2;100.0;101100;;;;
2022/05/31 00:34:00;;;;;;;0.7;0.7;;;;;;;12.2;100.0;101100;;;;
2022/05/31 00:35:03;;;;;;;0.7;0.7;;;;;;;12.2;100.0;101100;;;;
2022/05/31 00:36:00;;;;;;;0.7;0.7;;;;;;;12.2;100.0;101100;;;;
2022/05/31 00:37:00;;;;;;;0.7;0.7;;;;;;;12.2;100.0;101100;;;;
2022/05/31 00:38:00;;;;;;;0.7;0.7;;;;;;;12.2;100.0;101100;;;;
2022/05/31 00:39:00;;;;;;;0.7;0.7;;;;;;;12.2;100.0;101100;;;;
2022/05/31 00:40:00;;;;;;;0.7;0.7;;;;;;;12.1;100.0;101100;;;;
2022/05/31 00:41:22;;;;;;;6.7;1.0;;;;;;;12.1;100.0;101100;;;;
2022/05/31 00:42:01;;;;;;;6.7;1.0;;;;;;;12.1;100.0;101100;;;;
2022/05/31 00:43:02;;;;;;;6.7;1.0;;;;;;;12.1;100.0;101100;;;;
2022/05/31 00:44:03;;;;;;;6.7;1.0;;;;;;;12.1;100.0;101090;;;;
2022/05/31 00:45:00;;;;;;;6.7;1.0;;;;;;;12.1;100.0;101090;;;;
2022/05/31 00:46:02;;;;;;;6.7;1.0;;;;;;;12.1;100.0;101090;;;;
2022/05/31 00:47:01;;;;;;;6.7;1.0;;;;;;;12.1;100.0;101090;;;;
2022/05/31 00:48:00;;;;;;;6.7;1.0;;;;;;;12.0;100.0;101090;;;;
2022/05/31 00:49:02;;;;;;;6.7;1.0;;;;;;;12.0;100.0;101090;;;;
2022/05/31 00:50:02;;;;;;;6.7;1.0;;;;;;;12.0;100.0;101090;;;;
2022/05/31 00:51:03;;;;;;;6.7;1.0;;;;;;;12.0;100.0;101090;;;;
2022/05/31 00:52:02;;;;;;;6.7;1.0;;;;;;;12.0;100.0;101100;;;;
2022/05/31 00:53:02;;;;;;;6.7;1.0;;;;;;;12.0;100.0;101100;;;;
2022/05/31 00:54:01;;;;;;;6.7;1.0;;;;;;;12.0;100.0;101100;;;;
2022/05/31 00:55:09;;;;;;;6.7;1.0;;;;;;;12.0;100.0;101100;;;;
2022/05/31 00:56:02;;;;;;;6.7;1.0;;;;;;;12.0;100.0;101100;;;;
2022/05/31 00:57:00;;;;;;;6.7;1.0;;;;;;;12.0;100.0;101100;;;;
2022/05/31 00:58:00;;;;;;;6.7;1.0;;;;;;;12.0;100.0;101100;;;;
2022/05/31 00:59:04;;;;;;;6.7;1.0;;;;;;;12.0;100.0;101100;;;;
2022/05/31 01:00:03;;;;;;;6.7;1.0;;;;;;;12.0;100.0;101100;;;;
2022/05/31 01:01:02;;;;;;;0.7;0.7;;;;;;;12.0;100.0;101100;;;;
2022/05/31 01:02:00;;;;;;;0.7;0.7;;;;;;;12.0;100.0;101100;;;;
2022/05/31 01:03:00;;;;;;;0.7;0.7;;;;;;;12.0;100.0;101100;;;;
2022/05/31 01:04:00;;;;;;;0.7;0.7;;;;;;;12.0;100.0;101100;;;;
2022/05/31 01:05:01;;;;;;;0.7;0.7;;;;;;;12.0;100.0;101100;;;;
2022/05/31 01:06:00;;;;;;;0.7;0.7;;;;;;;11.9;100.0;101100;;;;
2022/05/31 01:07:02;;;;;;;0.7;0.7;;;;;;;11.9;100.0;101100;;;;
2022/05/31 01:08:00;;;;;;;0.7;0.7;;;;;;;11.9;100.0;101100;;;;
2022/05/31 01:09:00;;;;;;;0.7;0.7;;;;;;;11.9;100.0;101100;;;;
2022/05/31 01:10:00;;;;;;;0.7;0.7;;;;;;;11.9;100.0;101100;;;;
2022/05/31 01:11:00;;;;;;;0.7;0.7;;;;;;;11.9;100.0;101100;;;;
2022/05/31 01:12:01;;;;;;;0.7;0.7;;;;;;;11.9;100.0;101100;;;;
2022/05/31 01:13:00;;;;;;;0.7;0.7;;;;;;;11.9;100.0;101100;;;;
2022/05/31 01:14:00;;;;;;;0.7;0.7;;;;;;;11.8;100.0;101100;;;;
2022/05/31 01:15:00;;;;;;;0.7;0.7;;;;;;;11.8;100.0;101100;;;;
2022/05/31 01:16:02;;;;;;;0.7;0.7;;;;;;;11.8;100.0;101100;;;;
2022/05/31 01:17:01;;;;;;;0.7;0.7;;;;;;;11.8;100.0;101100;;;;
2022/05/31 01:18:00;;;;;;;0.7;0.7;;;;;;;11.8;100.0;101090;;;;
2022/05/31 01:19:00;;;;;;;0.7;0.7;;;;;;;11.8;100.0;101090;;;;
2022/05/31 01:20:03;;;;;;;0.6;0.6;;;;;;;11.7;100.0;101090;;;;
2022/05/31 01:21:00;;;;;;;0.6;0.6;;;;;;;11.7;100.0;101090;;;;
2022/05/31 01:22:00;;;;;;;0.6;0.6;;;;;;;11.8;100.0;101100;;;;
2022/05/31 01:23:03;;;;;;;0.6;0.6;;;;;;;11.8;100.0;101100;;;;
2022/05/31 01:24:10;;;;;;;0.6;0.6;;;;;;;11.7;100.0;101090;;;;
2022/05/31 01:25:04;;;;;;;0.6;0.6;;;;;;;11.7;100.0;101090;;;;
2022/05/31 01:26:10;;;;;;;0.6;0.6;;;;;;;11.7;100.0;101090;;;;
2022/05/31 01:27:04;;;;;;;0.6;0.6;;;;;;;11.7;100.0;101090;;;;
2022/05/31 01:28:10;;;;;;;0.6;0.6;;;;;;;11.7;100.0;101090;;;;
2022/05/31 01:29:10;;;;;;;0.6;0.6;;;;;;;11.7;100.0;101090;;;;
2022/05/31 01:30:01;;;;;;;0.6;0.6;;;;;;;11.7;100.0;101090;;;;
2022/05/31 01:31:05;;;;;;;0.6;0.6;;;;;;;11.7;100.0;101090;;;;
2022/05/31 01:32:03;;;;;;;0.6;0.6;;;;;;;11.6;100.0;101090;;;;
2022/05/31 01:33:03;;;;;;;0.6;0.6;;;;;;;11.6;100.0;101090;;;;
2022/05/31 01:34:00;;;;;;;0.6;0.6;;;;;;;11.6;100.0;101090;;;;
2022/05/31 01:35:04;;;;;;;0.6;0.6;;;;;;;11.6;100.0;101090;;;;
2022/05/31 01:36:05;;;;;;;0.6;0.6;;;;;;;11.6;100.0;101090;;;;
2022/05/31 01:37:00;;;;;;;0.6;0.6;;;;;;;11.6;100.0;101090;;;;
2022/05/31 01:38:10;;;;;;;0.6;0.6;;;;;;;11.5;100.0;101090;;;;
2022/05/31 01:39:05;;;;;;;0.6;0.6;;;;;;;11.5;100.0;101090;;;;
2022/05/31 01:40:02;;;;;;;1.0;1.0;;;;;;;11.3;100.0;101090;;;;
2022/05/31 01:41:06;;;;;;;1.0;1.0;;;;;;;11.3;100.0;101090;;;;
2022/05/31 01:42:07;;;;;;;1.0;1.0;;;;;;;11.4;100.0;101080;;;;
2022/05/31 01:43:00;;;;;;;1.0;1.0;;;;;;;11.4;100.0;101080;;;;
2022/05/31 01:44:02;;;;;;;1.0;1.0;;;;;;;11.4;100.0;101080;;;;
2022/05/31 01:45:04;;;;;;;1.0;1.0;;;;;;;11.4;100.0;101080;;;;
2022/05/31 01:46:10;;;;;;;1.0;1.0;;;;;;;11.4;100.0;101080;;;;
2022/05/31 01:47:01;;;;;;;1.0;1.0;;;;;;;11.4;100.0;101080;;;;
2022/05/31 01:48:02;;;;;;;1.0;1.0;;;;;;;11.4;100.0;101080;;;;
2022/05/31 01:49:01;;;;;;;1.0;1.0;;;;;;;11.4;100.0;101080;;;;
2022/05/31 01:50:00;;;;;;;1.0;1.0;;;;;;;11.4;100.0;101080;;;;
2022/05/31 01:51:00;;;;;;;1.0;1.0;;;;;;;11.4;100.0;101080;;;;
2022/05/31 01:52:00;;;;;;;1.0;1.0;;;;;;;11.4;100.0;101080;;;;
2022/05/31 01:53:00;;;;;;;1.0;1.0;;;;;;;11.4;100.0;101080;;;;
2022/05/31 01:54:00;;;;;;;1.0;1.0;;;;;;;11.3;100.0;101070;;;;
2022/05/31 01:55:01;;;;;;;1.0;1.0;;;;;;;11.3;100.0;101070;;;;
2022/05/31 01:56:00;;;;;;;1.0;1.0;;;;;;;11.3;100.0;101070;;;;
2022/05/31 01:57:01;;;;;;;1.0;1.0;;;;;;;11.3;100.0;101070;;;;
2022/05/31 01:58:02;;;;;;;1.0;1.0;;;;;;;11.3;100.0;101070;;;;
2022/05/31 01:59:01;;;;;;;1.0;1.0;;;;;;;11.3;100.0;101070;;;;
2022/05/31 02:00:02;;;;;;;1.0;1.0;;;;;;;11.4;100.0;101080;;;;
2022/05/31 02:01:01;;;;;;;1.0;1.0;;;;;;;11.4;100.0;101080;;;;
2022/05/31 02:02:01;;;;;;;1.0;1.0;;;;;;;11.4;100.0;101080;;;;
2022/05/31 02:03:03;;;;;;;1.0;1.0;;;;;;;11.4;100.0;101080;;;;
2022/05/31 02:04:00;;;;;;;1.0;1.0;;;;;;;11.3;100.0;101070;;;;
2022/05/31 02:05:00;;;;;;;1.0;1.0;;;;;;;11.3;100.0;101070;;;;
2022/05/31 02:06:00;;;;;;;1.0;1.0;;;;;;;11.3;100.0;101070;;;;
2022/05/31 02:07:12;;;;;;;1.0;1.0;;;;;;;11.3;100.0;101070;;;;
2022/05/31 02:08:01;;;;;;;1.0;1.0;;;;;;;11.3;100.0;101070;;;;
2022/05/31 02:09:00;;;;;;;1.0;1.0;;;;;;;11.3;100.0;101070;;;;
2022/05/31 02:10:07;;;;;;;1.0;1.0;;;;;;;11.2;100.0;101070;;;;
2022/05/31 02:11:00;;;;;;;1.0;1.0;;;;;;;11.2;100.0;101070;;;;
2022/05/31 02:12:00;;;;;;;1.0;1.0;;;;;;;11.2;100.0;101070;;;;
2022/05/31 02:13:00;;;;;;;1.0;1.0;;;;;;;11.2;100.0;101070;;;;
2022/05/31 02:14:00;;;;;;;1.0;1.0;;;;;;;11.2;100.0;101070;;;;
2022/05/31 02:15:00;;;;;;;1.0;1.0;;;;;;;11.2;100.0;101070;;;;
2022/05/31 02:16:00;;;;;;;1.0;1.0;;;;;;;11.2;100.0;101070;;;;
2022/05/31 02:17:00;;;;;;;1.0;1.0;;;;;;;11.2;100.0;101070;;;;
2022/05/31 02:18:00;;;;;;;1.0;1.0;;;;;;;11.1;100.0;101070;;;;
2022/05/31 02:20:00;;;;;;;0.8;0.8;;;;;;;11.1;100.0;101070;;;;
2022/05/31 02:21:00;;;;;;;0.8;0.8;;;;;;;11.1;100.0;101070;;;;
2022/05/31 02:22:04;;;;;;;0.8;0.8;;;;;;;11.0;100.0;101070;;;;
2022/05/31 02:23:00;;;;;;;0.8;0.8;;;;;;;11.0;100.0;101070;;;;
2022/05/31 02:24:00;;;;;;;0.8;0.8;;;;;;;11.0;100.0;101070;;;;
2022/05/31 02:25:00;;;;;;;0.8;0.8;;;;;;;11.0;100.0;101070;;;;
2022/05/31 02:26:00;;;;;;;0.8;0.8;;;;;;;11.1;100.0;101070;;;;
2022/05/31 02:27:01;;;;;;;0.8;0.8;;;;;;;11.1;100.0;101070;;;;
2022/05/31 02:28:00;;;;;;;0.8;0.8;;;;;;;11.1;100.0;101070;;;;
2022/05/31 02:29:00;;;;;;;0.8;0.8;;;;;;;11.1;100.0;101070;;;;
2022/05/31 02:30:00;;;;;;;0.8;0.8;;;;;;;11.0;100.0;101080;;;;
2022/05/31 02:31:00;;;;;;;0.8;0.8;;;;;;;11.0;100.0;101080;;;;
2022/05/31 02:32:01;;;;;;;0.8;0.8;;;;;;;11.0;100.0;101080;;;;
2022/05/31 02:33:00;;;;;;;0.8;0.8;;;;;;;11.0;100.0;101080;;;;
2022/05/31 02:34:01;;;;;;;0.8;0.8;;;;;;;10.9;100.0;101080;;;;
2022/05/31 02:35:01;;;;;;;0.8;0.8;;;;;;;10.9;100.0;101080;;;;
2022/05/31 02:36:00;;;;;;;0.8;0.8;;;;;;;11.0;100.0;101080;;;;
2022/05/31 02:37:00;;;;;;;0.8;0.8;;;;;;;11.0;100.0;101080;;;;
2022/05/31 02:38:00;;;;;;;0.8;0.8;;;;;;;10.9;100.0;101080;;;;
2022/05/31 02:39:00;;;;;;;0.8;0.8;;;;;;;10.9;100.0;101080;;;;
2022/05/31 02:40:00;;;;;;;0.8;0.8;;;;;;;11.0;100.0;101080;;;;
2022/05/31 02:41:00;;;;;;;0.8;0.8;;;;;;;11.0;100.0;101080;;;;
2022/05/31 02:42:01;;;;;;;0.8;0.8;;;;;;;11.0;100.0;101070;;;;
2022/05/31 02:43:00;;;;;;;0.8;0.8;;;;;;;11.0;100.0;101070;;;;
2022/05/31 02:44:00;;;;;;;0.8;0.8;;;;;;;10.9;100.0;101070;;;;
2022/05/31 02:45:00;;;;;;;0.8;0.8;;;;;;;10.9;100.0;101070;;;;
2022/05/31 02:46:00;;;;;;;0.8;0.8;;;;;;;10.9;100.0;101070;;;;
2022/05/31 02:47:01;;;;;;;0.8;0.8;;;;;;;10.9;100.0;101070;;;;
2022/05/31 02:48:00;;;;;;;0.8;0.8;;;;;;;11.0;100.0;101070;;;;
2022/05/31 02:49:00;;;;;;;0.8;0.8;;;;;;;11.0;100.0;101070;;;;
2022/05/31 02:50:00;;;;;;;0.8;0.8;;;;;;;11.0;100.0;101060;;;;
2022/05/31 02:51:00;;;;;;;0.8;0.8;;;;;;;11.0;100.0;101060;;;;
2022/05/31 02:52:00;;;;;;;0.8;0.8;;;;;;;11.0;100.0;101060;;;;
2022/05/31 02:53:00;;;;;;;0.8;0.8;;;;;;;11.0;100.0;101060;;;;
2022/05/31 02:54:00;;;;;;;0.8;0.8;;;;;;;11.0;100.0;101060;;;;
2022/05/31 02:55:00;;;;;;;0.8;0.8;;;;;;;11.0;100.0;101060;;;;
2022/05/31 02:56:00;;;;;;;0.8;0.8;;;;;;;11.0;100.0;101060;;;;
2022/05/31 02:57:00;;;;;;;0.8;0.8;;;;;;;11.0;100.0;101060;;;;
2022/05/31 02:58:00;;;;;;;0.8;0.8;;;;;;;11.0;100.0;101060;;;;
2022/05/31 02:59:00;;;;;;;0.8;0.8;;;;;;;11.0;100.0;101060;;;;
2022/05/31 03:00:00;;;;;;;0.9;0.9;;;;;;;11.1;100.0;101050;;;;
2022/05/31 03:01:00;;;;;;;0.9;0.9;;;;;;;11.1;100.0;101050;;;;
2022/05/31 03:02:00;;;;;;;0.9;0.9;;;;;;;11.0;100.0;101060;;;;
2022/05/31 03:03:00;;;;;;;0.9;0.9;;;;;;;11.0;100.0;101060;;;;
2022/05/31 03:04:00;;;;;;;0.9;0.9;;;;;;;11.0;100.0;101060;;;;
2022/05/31 03:05:00;;;;;;;0.9;0.9;;;;;;;11.0;100.0;101060;;;;
2022/05/31 03:06:00;;;;;;;0.9;0.9;;;;;;;11.0;100.0;101060;;;;
2022/05/31 03:07:03;;;;;;;0.9;0.9;;;;;;;11.0;100.0;101060;;;;
2022/05/31 03:08:00;;;;;;;0.9;0.9;;;;;;;11.0;100.0;101060;;;;
2022/05/31 03:09:00;;;;;;;0.9;0.9;;;;;;;11.0;100.0;101060;;;;
2022/05/31 03:10:00;;;;;;;0.9;0.9;;;;;;;11.1;100.0;101060;;;;
2022/05/31 03:11:01;;;;;;;0.9;0.9;;;;;;;11.1;100.0;101060;;;;
2022/05/31 03:12:03;;;;;;;0.9;0.9;;;;;;;10.9;100.0;101060;;;;
2022/05/31 03:13:00;;;;;;;0.9;0.9;;;;;;;10.9;100.0;101060;;;;
2022/05/31 03:14:04;;;;;;;0.9;0.9;;;;;;;10.8;100.0;101060;;;;
2022/05/31 03:15:04;;;;;;;0.9;0.9;;;;;;;10.8;100.0;101060;;;;
2022/05/31 03:16:01;;;;;;;0.9;0.9;;;;;;;10.7;100.0;101060;;;;
2022/05/31 03:17:03;;;;;;;0.9;0.9;;;;;;;10.7;100.0;101060;;;;
2022/05/31 03:18:03;;;;;;;0.9;0.9;;;;;;;10.9;100.0;101060;;;;
2022/05/31 03:19:02;;;;;;;0.9;0.9;;;;;;;10.9;100.0;101060;;;;
2022/05/31 03:20:10;;;;;;;1.0;1.0;;;;;;;11.0;100.0;101060;;;;
2022/05/31 03:21:04;;;;;;;1.0;1.0;;;;;;;11.0;100.0;101060;;;;
2022/05/31 03:22:03;;;;;;;1.0;1.0;;;;;;;10.8;100.0;101050;;;;
2022/05/31 03:23:02;;;;;;;1.0;1.0;;;;;;;10.8;100.0;101050;;;;
2022/05/31 03:24:02;;;;;;;1.0;1.0;;;;;;;11.0;100.0;101050;;;;
2022/05/31 03:25:04;;;;;;;1.0;1.0;;;;;;;11.0;100.0;101050;;;;
2022/05/31 03:26:01;;;;;;;1.0;1.0;;;;;;;11.0;100.0;101050;;;;
2022/05/31 03:27:02;;;;;;;1.0;1.0;;;;;;;11.0;100.0;101050;;;;
2022/05/31 03:28:02;;;;;;;1.0;1.0;;;;;;;11.1;100.0;101050;;;;
2022/05/31 03:29:00;;;;;;;1.0;1.0;;;;;;;11.1;100.0;101050;;;;
2022/05/31 03:30:01;;;;;;;1.0;1.0;;;;;;;11.0;100.0;101050;;;;
2022/05/31 03:31:00;;;;;;;1.0;1.0;;;;;;;11.0;100.0;101050;;;;
2022/05/31 03:32:00;;;;;;;1.0;1.0;;;;;;;11.1;100.0;101050;;;;
2022/05/31 03:33:01;;;;;;;1.0;1.0;;;;;;;11.1;100.0;101050;;;;
2022/05/31 03:34:00;;;;;;;1.0;1.0;;;;;;;10.9;100.0;101050;;;;
2022/05/31 03:35:00;;;;;;;1.0;1.0;;;;;;;10.9;100.0;101050;;;;
2022/05/31 03:36:01;;;;;;;1.0;1.0;;;;;;;11.1;100.0;101050;;;;
2022/05/31 03:37:00;;;;;;;1.0;1.0;;;;;;;11.1;100.0;101050;;;;
2022/05/31 03:38:00;;;;;;;1.0;1.0;;;;;;;11.1;100.0;101050;;;;
2022/05/31 03:39:00;;;;;;;1.0;1.0;;;;;;;11.1;100.0;101050;;;;
2022/05/31 03:40:00;;;;;;;1.4;1.4;;;;;;;11.1;100.0;101050;;;;
2022/05/31 03:41:00;;;;;;;1.4;1.4;;;;;;;11.1;100.0;101050;;;;
2022/05/31 03:42:00;;;;;;;1.4;1.4;;;;;;;11.1;100.0;101050;;;;
2022/05/31 03:43:02;;;;;;;1.4;1.4;;;;;;;11.1;100.0;101050;;;;
2022/05/31 03:44:00;;;;;;;1.4;1.4;;;;;;;11.1;100.0;101050;;;;
2022/05/31 03:45:00;;;;;;;1.4;1.4;;;;;;;11.1;100.0;101050;;;;
2022/05/31 03:46:00;;;;;;;1.4;1.4;;;;;;;11.2;100.0;101050;;;;
2022/05/31 03:47:02;;;;;;;1.4;1.4;;;;;;;11.2;100.0;101050;;;;
2022/05/31 03:48:00;;;;;;;1.4;1.4;;;;;;;11.2;100.0;101050;;;;
2022/05/31 03:49:00;;;;;;;1.4;1.4;;;;;;;11.2;100.0;101050;;;;
2022/05/31 03:50:00;;;;;;;1.4;1.4;;;;;;;11.2;100.0;101050;;;;
2022/05/31 03:51:03;;;;;;;1.4;1.4;;;;;;;11.2;100.0;101050;;;;
2022/05/31 03:52:00;;;;;;;1.4;1.4;;;;;;;11.2;100.0;101050;;;;
2022/05/31 03:53:00;;;;;;;1.4;1.4;;;;;;;11.2;100.0;101050;;;;
2022/05/31 03:54:00;;;;;;;1.4;1.4;;;;;;;11.3;100.0;101050;;;;
2022/05/31 03:55:00;;;;;;;1.4;1.4;;;;;;;11.3;100.0;101050;;;;
2022/05/31 03:56:05;;;;;;;1.4;1.4;;;;;;;11.3;100.0;101060;;;;
2022/05/31 03:57:00;;;;;;;1.4;1.4;;;;;;;11.3;100.0;101060;;;;
2022/05/31 03:58:00;;;;;;;1.4;1.4;;;;;;;11.1;100.0;101060;;;;
2022/05/31 03:59:00;;;;;;;1.4;1.4;;;;;;;11.1;100.0;101060;;;;
2022/05/31 04:00:00;;;;;;;1.1;1.1;;;;;;;11.3;100.0;101060;;;;
2022/05/31 04:01:00;;;;;;;1.1;1.1;;;;;;;11.3;100.0;101060;;;;
2022/05/31 04:02:00;;;;;;;1.1;1.1;;;;;;;11.3;100.0;101060;;;;
2022/05/31 04:03:00;;;;;;;1.1;1.1;;;;;;;11.3;100.0;101060;;;;
2022/05/31 04:04:03;;;;;;;1.1;1.1;;;;;;;11.2;100.0;101050;;;;
2022/05/31 04:05:00;;;;;;;1.1;1.1;;;;;;;11.2;100.0;101050;;;;
2022/05/31 04:06:00;;;;;;;1.1;1.1;;;;;;;11.2;100.0;101050;;;;
2022/05/31 04:07:00;;;;;;;1.1;1.1;;;;;;;11.2;100.0;101050;;;;
2022/05/31 04:08:02;;;;;;;1.1;1.1;;;;;;;11.2;100.0;101050;;;;
2022/05/31 04:09:00;;;;;;;1.1;1.1;;;;;;;11.2;100.0;101050;;;;
2022/05/31 04:10:01;;;;;;;1.1;1.1;;;;;;;11.2;100.0;101050;;;;
2022/05/31 04:11:00;;;;;;;1.1;1.1;;;;;;;11.2;100.0;101050;;;;
2022/05/31 04:12:00;;;;;;;1.1;1.1;;;;;;;11.3;100.0;101050;;;;
2022/05/31 04:13:00;;;;;;;1.1;1.1;;;;;;;11.3;100.0;101050;;;;
2022/05/31 04:14:00;;;;;;;1.1;1.1;;;;;;;11.1;100.0;101050;;;;
2022/05/31 04:15:00;;;;;;;1.1;1.1;;;;;;;11.1;100.0;101050;;;;
2022/05/31 04:16:04;;;;;;;1.1;1.1;;;;;;;11.2;100.0;101050;;;;
2022/05/31 04:17:00;;;;;;;1.1;1.1;;;;;;;11.2;100.0;101050;;;;
2022/05/31 04:18:00;;;;;;;1.1;1.1;;;;;;;11.2;100.0;101050;;;;
2022/05/31 04:19:00;;;;;;;1.1;1.1;;;;;;;11.2;100.0;101050;;;;
2022/05/31 04:20:00;;;;;;;0.8;0.8;;;;;;;11.4;100.0;101050;;;;
2022/05/31 04:21:02;;;;;;;0.8;0.8;;;;;;;11.4;100.0;101050;;;;
2022/05/31 04:22:00;;;;;;;0.8;0.8;;;;;;;11.4;100.0;101050;;;;
2022/05/31 04:24:02;;;;;;;0.8;0.8;;;;;;;11.4;100.0;101050;;;;
2022/05/31 04:25:01;;;;;;;0.8;0.8;;;;;;;11.4;100.0;101050;;;;
2022/05/31 04:26:02;;;;;;;0.8;0.8;;;;;;;11.4;100.0;101040;;;;
2022/05/31 04:27:00;;;;;;;0.8;0.8;;;;;;;11.4;100.0;101040;;;;
2022/05/31 04:28:00;;;;;;;0.8;0.8;;;;;;;11.5;100.0;101040;;;;
2022/05/31 04:29:00;;;;;;;0.8;0.8;;;;;;;11.5;100.0;101040;;;;
2022/05/31 04:30:00;;;;;;;0.8;0.8;;;;;;;11.6;100.0;101050;;;;
2022/05/31 04:31:00;;;;;;;0.8;0.8;;;;;;;11.6;100.0;101050;;;;
2022/05/31 04:32:00;;;;;;;0.8;0.8;;;;;;;11.5;100.0;101050;;;;
2022/05/31 04:33:00;;;;;;;0.8;0.8;;;;;;;11.5;100.0;101050;;;;
2022/05/31 04:34:00;;;;;;;0.8;0.8;;;;;;;11.5;100.0;101040;;;;
2022/05/31 04:35:01;;;;;;;0.8;0.8;;;;;;;11.5;100.0;101040;;;;
2022/05/31 04:36:01;;;;;;;0.8;0.8;;;;;;;11.6;100.0;101040;;;;
2022/05/31 04:37:00;;;;;;;0.8;0.8;;;;;;;11.6;100.0;101040;;;;
2022/05/31 04:38:00;;;;;;;0.8;0.8;;;;;;;11.5;100.0;101050;;;;
2022/05/31 04:39:00;;;;;;;0.8;0.8;;;;;;;11.5;100.0;101050;;;;
2022/05/31 04:40:00;;;;;;;0.9;0.9;;;;;;;11.6;100.0;101050;;;;
2022/05/31 04:41:00;;;;;;;0.9;0.9;;;;;;;11.6;100.0;101050;;;;
2022/05/31 04:42:00;;;;;;;0.9;0.9;;;;;;;11.4;100.0;101050;;;;
2022/05/31 04:43:00;;;;;;;0.9;0.9;;;;;;;11.4;100.0;101050;;;;
2022/05/31 04:44:01;;;;;;;0.9;0.9;;;;;;;11.5;100.0;101050;;;;
2022/05/31 04:45:00;;;;;;;0.9;0.9;;;;;;;11.5;100.0;101050;;;;
2022/05/31 04:46:10;;;;;;;0.9;0.9;;;;;;;11.6;100.0;101050;;;;
2022/05/31 04:47:02;;;;;;;0.9;0.9;;;;;;;11.6;100.0;101050;;;;
2022/05/31 04:48:00;;;;;;;0.9;0.9;;;;;;;11.6;100.0;101050;;;;
2022/05/31 04:49:02;;;;;;;0.9;0.9;;;;;;;11.6;100.0;101050;;;;
2022/05/31 04:50:00;;;;;;;0.9;0.9;;;;;;;11.5;100.0;101050;;;;
2022/05/31 04:51:00;;;;;;;0.9;0.9;;;;;;;11.5;100.0;101050;;;;
2022/05/31 04:52:06;;;;;;;0.9;0.9;;;;;;;11.6;100.0;101050;;;;
2022/05/31 04:53:00;;;;;;;0.9;0.9;;;;;;;11.6;100.0;101050;;;;
2022/05/31 04:54:01;;;;;;;0.9;0.9;;;;;;;11.6;100.0;101060;;;;
2022/05/31 04:55:00;;;;;;;0.9;0.9;;;;;;;11.6;100.0;101060;;;;
2022/05/31 04:56:03;;;;;;;0.9;0.9;;;;;;;11.8;100.0;101060;;;;
2022/05/31 04:57:00;;;;;;;0.9;0.9;;;;;;;11.8;100.0;101060;;;;
2022/05/31 04:58:00;;;;;;;0.9;0.9;;;;;;;11.6;100.0;101060;;;;
2022/05/31 04:59:00;;;;;;;0.9;0.9;;;;;;;11.6;100.0;101060;;;;
2022/05/31 05:00:00;;;;;;;0.7;0.7;;;;;;;11.4;100.0;101060;;;;
2022/05/31 05:01:01;;;;;;;0.7;0.7;;;;;;;11.4;100.0;101060;;;;
2022/05/31 05:02:00;;;;;;;0.7;0.7;;;;;;;11.6;100.0;101060;;;;
2022/05/31 05:03:00;;;;;;;0.7;0.7;;;;;;;11.6;100.0;101060;;;;
2022/05/31 05:04:04;;;;;;;0.7;0.7;;;;;;;11.6;100.0;101050;;;;
2022/05/31 05:05:00;;;;;;;0.7;0.7;;;;;;;11.6;100.0;101050;;;;
2022/05/31 05:06:00;;;;;;;0.7;0.7;;;;;;;11.6;100.0;101040;;;;
2022/05/31 05:07:00;;;;;;;0.7;0.7;;;;;;;11.6;100.0;101040;;;;
2022/05/31 05:08:00;;;;;;;0.7;0.7;;;;;;;11.7;100.0;101040;;;;
2022/05/31 05:09:00;;;;;;;0.7;0.7;;;;;;;11.7;100.0;101040;;;;
2022/05/31 05:10:00;;;;;;;0.7;0.7;;;;;;;11.6;100.0;101040;;;;
2022/05/31 05:11:01;;;;;;;0.7;0.7;;;;;;;11.6;100.0;101040;;;;
2022/05/31 05:12:00;;;;;;;0.7;0.7;;;;;;;11.5;100.0;101040;;;;
2022/05/31 05:13:00;;;;;;;0.7;0.7;;;;;;;11.5;100.0;101040;;;;
2022/05/31 05:14:00;;;;;;;0.7;0.7;;;;;;;11.5;100.0;101040;;;;
2022/05/31 05:15:00;;;;;;;0.7;0.7;;;;;;;11.5;100.0;101040;;;;
2022/05/31 05:16:00;;;;;;;0.7;0.7;;;;;;;11.5;100.0;101050;;;;
2022/05/31 05:17:00;;;;;;;0.7;0.7;;;;;;;11.5;100.0;101050;;;;
2022/05/31 05:18:00;;;;;;;0.7;0.7;;;;;;;11.7;100.0;101050;;;;
2022/05/31 05:19:00;;;;;;;0.7;0.7;;;;;;;11.7;100.0;101050;;;;
2022/05/31 05:20:00;;;;;;;0.8;0.8;;;;;;;11.7;100.0;101040;;;;
2022/05/31 05:21:01;;;;;;;0.8;0.8;;;;;;;11.7;100.0;101040;;;;
2022/05/31 05:22:00;;;;;;;0.8;0.8;;;;;;;11.7;100.0;101040;;;;
2022/05/31 05:23:00;;;;;;;0.8;0.8;;;;;;;11.7;100.0;101040;;;;
2022/05/31 05:24:00;;;;;;;0.8;0.8;;;;;;;11.7;100.0;101040;;;;
2022/05/31 05:25:00;;;;;;;0.8;0.8;;;;;;;11.7;100.0;101040;;;;
2022/05/31 05:26:00;;;;;;;0.8;0.8;;;;;;;11.9;100.0;101040;;;;
2022/05/31 05:27:00;;;;;;;0.8;0.8;;;;;;;11.9;100.0;101040;;;;
2022/05/31 05:28:00;;;;;;;0.8;0.8;;;;;;;11.8;100.0;101040;;;;
2022/05/31 05:31:00;;;;;;;0.8;0.8;;;;;;;11.9;100.0;101040;;;;
2022/05/31 05:32:04;;;;;;;0.8;0.8;;;;;;;12.0;100.0;101040;;;;
2022/05/31 05:33:00;;;;;;;0.8;0.8;;;;;;;12.0;100.0;101040;;;;
2022/05/31 05:34:00;;;;;;;0.8;0.8;;;;;;;12.1;100.0;101040;;;;
2022/05/31 05:35:00;;;;;;;0.8;0.8;;;;;;;12.1;100.0;101040;;;;
2022/05/31 05:36:00;;;;;;;0.8;0.8;;;;;;;12.0;100.0;101040;;;;
2022/05/31 05:37:00;;;;;;;0.8;0.8;;;;;;;12.0;100.0;101040;;;;
2022/05/31 05:38:01;;;;;;;0.8;0.8;;;;;;;12.1;100.0;101040;;;;
2022/05/31 05:39:00;;;;;;;0.8;0.8;;;;;;;12.1;100.0;101040;;;;
2022/05/31 05:40:00;;;;;;;0.7;0.7;;;;;;;12.1;100.0;101040;;;;
2022/05/31 05:41:00;;;;;;;0.7;0.7;;;;;;;12.1;100.0;101040;;;;
2022/05/31 05:42:00;;;;;;;0.7;0.7;;;;;;;12.2;100.0;101050;;;;
2022/05/31 05:43:00;;;;;;;0.7;0.7;;;;;;;12.2;100.0;101050;;;;
2022/05/31 05:44:00;;;;;;;0.7;0.7;;;;;;;12.2;100.0;101040;;;;
2022/05/31 05:45:00;;;;;;;0.7;0.7;;;;;;;12.2;100.0;101040;;;;
2022/05/31 05:46:00;;;;;;;0.7;0.7;;;;;;;12.3;100.0;101040;;;;
2022/05/31 05:47:04;;;;;;;0.7;0.7;;;;;;;12.3;100.0;101040;;;;
2022/05/31 05:48:06;;;;;;;0.7;0.7;;;;;;;12.3;100.0;101040;;;;
2022/05/31 05:49:01;;;;;;;0.7;0.7;;;;;;;12.3;100.0;101040;;;;
2022/05/31 05:50:00;;;;;;;0.7;0.7;;;;;;;12.3;100.0;101040;;;;
2022/05/31 05:51:00;;;;;;;0.7;0.7;;;;;;;12.3;100.0;101040;;;;
2022/05/31 05:52:01;;;;;;;0.7;0.7;;;;;;;12.4;100.0;101050;;;;
2022/05/31 05:53:07;;;;;;;0.7;0.7;;;;;;;12.4;100.0;101050;;;;
2022/05/31 05:54:02;;;;;;;0.7;0.7;;;;;;;12.4;100.0;101040;;;;
2022/05/31 05:55:01;;;;;;;0.7;0.7;;;;;;;12.4;100.0;101040;;;;
2022/05/31 05:56:00;;;;;;;0.7;0.7;;;;;;;12.3;100.0;101050;;;;
2022/05/31 05:57:00;;;;;;;0.7;0.7;;;;;;;12.3;100.0;101050;;;;
2022/05/31 05:58:01;;;;;;;0.7;0.7;;;;;;;12.4;100.0;101040;;;;
2022/05/31 05:59:00;;;;;;;0.7;0.7;;;;;;;12.4;100.0;101040;;;;
2022/05/31 06:00:00;;;;;;;1.1;1.1;;;;;;;12.5;100.0;101040;;;;
2022/05/31 06:01:00;;;;;;;1.1;1.1;;;;;;;12.5;100.0;101040;;;;
2022/05/31 06:02:13;;;;;;;1.1;1.1;;;;;;;12.4;100.0;101040;;;;
2022/05/31 06:03:05;;;;;;;1.1;1.1;;;;;;;12.4;100.0;101040;;;;
2022/05/31 06:04:06;;;;;;;1.1;1.1;;;;;;;12.2;100.0;101040;;;;
2022/05/31 06:05:07;;;;;;;1.1;1.1;;;;;;;12.2;100.0;101040;;;;
2022/05/31 06:06:00;;;;;;;1.1;1.1;;;;;;;12.2;100.0;101050;;;;
2022/05/31 06:07:10;;;;;;;1.1;1.1;;;;;;;12.2;100.0;101050;;;;
2022/05/31 06:08:05;;;;;;;1.1;1.1;;;;;;;12.3;100.0;101040;;;;
2022/05/31 06:09:02;;;;;;;1.1;1.1;;;;;;;12.3;100.0;101040;;;;
2022/05/31 06:10:03;;;;;;;1.1;1.1;;;;;;;12.3;100.0;101050;;;;
2022/05/31 06:11:06;;;;;;;1.1;1.1;;;;;;;12.3;100.0;101050;;;;
2022/05/31 06:12:03;;;;;;;1.1;1.1;;;;;;;12.5;100.0;101040;;;;
2022/05/31 06:13:04;;;;;;;1.1;1.1;;;;;;;12.5;100.0;101040;;;;
2022/05/31 06:14:06;;;;;;;1.1;1.1;;;;;;;12.5;100.0;101040;;;;
2022/05/31 06:15:05;;;;;;;1.1;1.1;;;;;;;12.5;100.0;101040;;;;
2022/05/31 06:16:00;;;;;;;1.1;1.1;;;;;;;12.2;100.0;101040;;;;
2022/05/31 06:17:03;;;;;;;1.1;1.1;;;;;;;12.2;100.0;101040;;;;
2022/05/31 06:18:01;;;;;;;1.1;1.1;;;;;;;12.1;100.0;101040;;;;
2022/05/31 06:19:03;;;;;;;0.6;0.6;;;;;;;12.1;100.0;101040;;;;
2022/05/31 06:20:01;;;;;;;0.6;0.6;;;;;;;12.2;100.0;101040;;;;
2022/05/31 06:21:02;;;;;;;0.6;0.6;;;;;;;12.2;100.0;101040;;;;
2022/05/31 06:22:01;;;;;;;0.6;0.6;;;;;;;12.2;100.0;101040;;;;
2022/05/31 06:23:00;;;;;;;0.6;0.6;;;;;;;12.2;100.0;101040;;;;
2022/05/31 06:24:05;;;;;;;0.6;0.6;;;;;;;12.3;100.0;101040;;;;
2022/05/31 06:25:00;;;;;;;0.6;0.6;;;;;;;12.3;100.0;101040;;;;
2022/05/31 06:26:00;;;;;;;0.6;0.6;;;;;;;12.4;100.0;101040;;;;